createdAt,value
2018-12-06T00:02:32.992Z,6.80
2018-12-06T00:07:27.907Z,6.85
2018-12-06T00:12:22.837Z,6.80
2018-12-06T00:17:17.821Z,6.80
2018-12-06T00:22:12.762Z,6.85
2018-12-06T00:27:07.943Z,6.92
2018-12-06T00:32:02.781Z,6.87
2018-12-06T00:36:57.589Z,6.87
2018-12-06T00:41:52.527Z,6.86
2018-12-06T00:46:47.366Z,6.91
2018-12-06T00:51:42.256Z,6.95
2018-12-06T00:56:37.916Z,6.87
2018-12-06T01:01:32.849Z,6.85
2018-12-06T01:06:27.799Z,6.86
2018-12-06T01:11:23.069Z,6.86
2018-12-06T01:16:18.006Z,6.87
2018-12-06T01:21:12.854Z,6.86
2018-12-06T01:26:07.681Z,6.91
2018-12-06T01:31:02.703Z,6.76
2018-12-06T01:35:57.587Z,6.81
2018-12-06T01:40:52.472Z,6.78
2018-12-06T01:45:47.305Z,6.75
2018-12-06T01:50:42.187Z,6.78
2018-12-06T01:55:37.002Z,6.75
2018-12-06T02:00:31.906Z,6.93
2018-12-06T02:05:26.759Z,6.73
2018-12-06T02:10:21.702Z,6.70
2018-12-06T02:15:16.842Z,6.77
2018-12-06T02:20:11.866Z,6.79
2018-12-06T02:25:06.851Z,6.73
2018-12-06T02:30:01.666Z,6.73
2018-12-06T02:40:01.532Z,6.69
2018-12-06T02:44:57.608Z,6.61
2018-12-06T02:49:52.792Z,6.62
2018-12-06T02:54:47.902Z,6.59
2018-12-06T02:59:49.082Z,6.64
2018-12-06T03:04:47.206Z,6.58
2018-12-06T03:09:42.294Z,6.58
2018-12-06T03:14:37.162Z,6.54
2018-12-06T03:19:32.124Z,6.47
2018-12-06T03:24:32.395Z,6.50
2018-12-06T03:29:27.260Z,6.53
2018-12-06T03:34:31.909Z,6.65
2018-12-06T03:45:07.243Z,6.67
2018-12-06T03:50:02.161Z,6.59
2018-12-06T03:54:57.069Z,6.62
2018-12-06T03:59:51.956Z,6.62
2018-12-06T04:04:46.774Z,6.65
2018-12-06T04:09:41.569Z,6.66
2018-12-06T04:14:36.437Z,6.68
2018-12-06T04:19:31.245Z,6.71
2018-12-06T04:24:26.120Z,6.71
2018-12-06T04:29:20.912Z,6.70
2018-12-06T04:34:15.834Z,6.70
2018-12-06T04:39:10.808Z,6.71
2018-12-06T04:44:05.751Z,6.73
2018-12-06T04:49:00.577Z,6.74
2018-12-06T04:53:55.358Z,6.73
2018-12-06T04:58:50.298Z,6.73
2018-12-06T05:03:45.067Z,6.75
2018-12-06T05:08:39.888Z,6.77
2018-12-06T05:13:34.711Z,6.80
2018-12-06T05:18:29.509Z,6.80
2018-12-06T05:23:24.263Z,6.81
2018-12-06T05:28:19.237Z,6.84
2018-12-06T05:33:14.147Z,6.84
2018-12-06T05:38:08.961Z,6.86
2018-12-06T05:43:03.816Z,6.85
2018-12-06T05:47:58.768Z,6.89
2018-12-06T05:52:53.564Z,6.95
2018-12-06T05:57:48.415Z,6.96
2018-12-06T06:02:44.974Z,6.97
2018-12-06T06:07:39.958Z,6.94
2018-12-06T06:12:34.846Z,7.03
2018-12-06T06:17:29.853Z,6.96
2018-12-06T06:22:24.748Z,6.87
2018-12-06T06:27:19.592Z,6.87
2018-12-06T06:32:14.391Z,6.87
2018-12-06T06:37:09.314Z,6.90
2018-12-06T06:42:04.300Z,6.89
2018-12-06T06:46:59.071Z,6.92
2018-12-06T06:51:53.961Z,6.93
2018-12-06T06:56:48.804Z,6.92
2018-12-06T07:01:44.193Z,6.98
2018-12-06T07:06:39.152Z,6.97
2018-12-06T07:11:34.019Z,7.02
2018-12-06T07:16:28.930Z,7.11
2018-12-06T07:21:23.912Z,7.18
2018-12-06T07:26:18.890Z,7.20
2018-12-06T07:31:13.840Z,7.26
2018-12-06T07:36:08.715Z,7.32
2018-12-06T07:41:03.705Z,7.35
2018-12-06T07:46:03.650Z,7.41
2018-12-06T07:50:58.492Z,7.56
2018-12-06T07:55:53.355Z,7.55
2018-12-06T08:00:48.286Z,7.64
2018-12-06T08:05:43.305Z,7.64
2018-12-06T08:10:38.193Z,7.72
2018-12-06T08:15:33.170Z,7.81
2018-12-06T08:20:28.070Z,7.91
2018-12-06T08:25:22.900Z,7.86
2018-12-06T08:30:17.698Z,7.91
2018-12-06T08:35:12.651Z,7.85
2018-12-06T08:40:08.904Z,7.92
2018-12-06T08:45:03.963Z,7.86
2018-12-06T08:49:58.806Z,7.79
2018-12-06T08:54:53.685Z,7.91
2018-12-06T08:59:48.538Z,8.21
2018-12-06T09:04:43.337Z,8.43
2018-12-06T09:09:38.132Z,8.55
2018-12-06T09:14:33.033Z,8.66
2018-12-06T09:19:27.834Z,8.70
2018-12-06T09:24:22.713Z,8.69
2018-12-06T09:29:17.665Z,8.80
2018-12-06T09:34:12.643Z,8.85
2018-12-06T09:39:10.802Z,8.99
2018-12-06T09:44:05.807Z,9.05
2018-12-06T09:49:00.694Z,8.97
2018-12-06T09:53:55.617Z,8.95
2018-12-06T09:58:50.389Z,8.95
2018-12-06T10:03:45.346Z,8.97
2018-12-06T10:08:40.174Z,9.00
2018-12-06T10:13:34.936Z,9.04
2018-12-06T10:18:29.703Z,9.04
2018-12-06T10:23:24.506Z,9.04
2018-12-06T10:28:19.232Z,8.99
2018-12-06T10:33:14.037Z,9.06
2018-12-06T10:38:08.891Z,9.17
2018-12-06T10:43:03.822Z,9.21
2018-12-06T10:47:58.722Z,9.16
2018-12-06T10:52:53.472Z,9.15
2018-12-06T10:57:48.438Z,9.29
2018-12-06T11:02:49.254Z,9.29
2018-12-06T11:07:44.112Z,9.44
2018-12-06T11:12:39.040Z,9.85
2018-12-06T11:17:35.484Z,10.18
2018-12-06T11:22:30.553Z,10.38
2018-12-06T11:32:47.433Z,10.56
2018-12-06T11:42:47.773Z,10.92
2018-12-06T11:47:42.557Z,10.87
2018-12-06T11:52:37.389Z,10.65
2018-12-06T11:57:34.269Z,10.28
2018-12-06T12:12:46.269Z,9.94
2018-12-06T12:17:42.229Z,10.14
2018-12-06T12:22:37.820Z,10.35
2018-12-06T12:27:33.004Z,10.43
2018-12-06T12:32:35.405Z,10.48
2018-12-06T12:37:36.846Z,10.52
2018-12-06T12:42:31.759Z,10.60
2018-12-06T12:47:26.657Z,10.75
2018-12-06T12:52:24.247Z,10.79
2018-12-06T12:57:19.410Z,10.72
2018-12-06T13:02:15.028Z,10.64
2018-12-06T13:07:13.562Z,10.65
2018-12-06T13:12:17.385Z,10.59
2018-12-06T13:22:38.858Z,10.56
2018-12-06T13:27:48.045Z,10.41
2018-12-06T13:32:48.427Z,10.45
2018-12-06T13:37:49.157Z,10.55
2018-12-06T13:42:44.134Z,10.47
2018-12-06T13:47:39.205Z,10.52
2018-12-06T13:52:34.313Z,10.52
2018-12-06T13:57:39.001Z,10.45
2018-12-06T14:02:36.966Z,10.38
2018-12-06T14:07:38.098Z,10.36
2018-12-06T14:12:36.359Z,10.30
2018-12-06T14:17:34.343Z,10.29
2018-12-06T14:22:30.296Z,10.31
2018-12-06T14:27:25.358Z,10.31
2018-12-06T14:32:20.455Z,10.34
2018-12-06T14:37:15.537Z,10.43
2018-12-06T14:42:10.452Z,10.52
2018-12-06T14:47:05.718Z,10.50
2018-12-06T14:52:01.669Z,10.39
2018-12-06T14:56:56.591Z,10.36
2018-12-06T15:01:51.663Z,10.33
2018-12-06T15:06:46.524Z,10.29
2018-12-06T15:11:41.529Z,10.22
2018-12-06T15:16:36.695Z,10.13
2018-12-06T15:21:31.701Z,10.07
2018-12-06T15:26:26.667Z,10.07
2018-12-06T15:31:21.594Z,10.00
2018-12-06T15:36:16.643Z,10.01
2018-12-06T15:41:11.518Z,9.92
2018-12-06T15:46:06.444Z,9.93
2018-12-06T15:51:01.262Z,9.90
2018-12-06T15:55:56.492Z,9.87
2018-12-06T16:00:51.515Z,9.84
2018-12-06T16:05:46.380Z,9.84
2018-12-06T16:10:44.978Z,9.81
2018-12-06T16:15:39.950Z,9.78
2018-12-06T16:20:34.984Z,9.73
2018-12-06T16:25:35.125Z,9.76
2018-12-06T16:30:30.030Z,9.69
2018-12-06T16:35:25.335Z,9.66
2018-12-06T16:40:20.246Z,9.63
2018-12-06T16:45:15.163Z,9.64
2018-12-06T16:50:14.209Z,9.56
2018-12-06T16:55:16.039Z,9.43
2018-12-06T17:00:16.303Z,9.43
2018-12-06T17:05:16.748Z,9.38
2018-12-06T17:10:16.154Z,9.34
2018-12-06T17:15:14.056Z,9.35
2018-12-06T17:20:11.110Z,9.44
2018-12-06T17:25:09.803Z,9.49
2018-12-06T17:30:06.214Z,9.48
2018-12-06T17:35:02.939Z,9.30
2018-12-06T17:39:59.446Z,9.26
2018-12-06T17:44:54.822Z,9.21
2018-12-06T17:49:53.204Z,9.16
2018-12-06T17:54:56.854Z,9.15
2018-12-06T18:00:02.557Z,9.15
2018-12-06T18:05:01.872Z,9.17
2018-12-06T18:10:05.265Z,9.09
2018-12-06T18:15:02.779Z,8.98
2018-12-06T18:20:06.366Z,8.92
2018-12-06T18:25:14.010Z,8.87
2018-12-06T18:30:10.105Z,8.88
2018-12-06T18:35:05.582Z,8.89
2018-12-06T18:40:00.793Z,8.79
2018-12-06T18:44:57.243Z,8.82
2018-12-06T18:55:17.359Z,8.91
2018-12-06T19:00:13.733Z,8.93
2018-12-06T19:05:09.230Z,8.99
2018-12-06T19:10:05.221Z,9.02
2018-12-06T19:15:02.071Z,9.02
2018-12-06T19:20:06.053Z,9.01
2018-12-06T19:37:37.380Z,9.02
2018-12-06T19:42:38.666Z,9.00
2018-12-06T19:47:36.716Z,9.01
2018-12-06T19:52:34.008Z,8.93
2018-12-06T19:57:30.676Z,8.98
2018-12-06T20:02:26.023Z,8.97
2018-12-06T20:21:13.062Z,8.93
2018-12-06T20:26:11.153Z,8.90
2018-12-06T20:31:09.078Z,8.97
2018-12-06T20:36:08.416Z,9.01
2018-12-06T20:41:05.489Z,9.03
2018-12-06T20:46:08.255Z,9.01
2018-12-06T20:51:07.764Z,8.97
2018-12-06T20:56:04.895Z,8.98
2018-12-06T21:01:02.969Z,8.97
2018-12-06T21:11:25.348Z,8.85
2018-12-06T21:16:20.536Z,8.82
2018-12-06T21:21:15.412Z,8.76
2018-12-06T21:26:10.598Z,8.73
2018-12-06T21:31:06.782Z,8.68
2018-12-06T21:36:02.027Z,8.64
2018-12-06T21:40:57.068Z,8.61
2018-12-06T21:45:53.280Z,8.62
2018-12-06T21:50:48.491Z,8.73
2018-12-06T21:55:43.551Z,8.79
2018-12-06T22:00:38.566Z,8.82
2018-12-06T22:05:33.363Z,8.83
2018-12-06T22:10:28.176Z,8.81
2018-12-06T22:15:23.093Z,8.78
2018-12-06T22:20:17.975Z,8.83
2018-12-06T22:25:13.022Z,8.83
2018-12-06T22:30:09.055Z,8.77
2018-12-06T22:35:05.285Z,8.78
2018-12-06T22:40:14.091Z,8.76
2018-12-06T22:45:43.380Z,8.73
2018-12-06T23:02:25.917Z,8.88
2018-12-06T23:21:09.933Z,9.00
2018-12-06T23:48:23.664Z,9.14
2018-12-06T23:53:48.581Z,9.17
2018-12-06T23:59:06.692Z,9.14
